Time;durP1;ratioP1;P1;durP2;ratioP2;P2;SDS_P1;SDS_P2;PMS_P1;PMS_P2;Temp;Humidity;BMP_temperature;BMP_pressure;BME280_temperature;BME280_humidity;BME280_pressure;Samples;Min_cycle;Max_cycle;Signal;HPM_P1;HPM_P2
2023/12/02 00:00:00;;;;;;;146.50;60.60;;;;;;;-4.09;94.61;99768.19;105417;1266;97969;-77
2023/12/02 00:03:05;;;;;;;134.40;57.10;;;;;;;-4.09;94.57;99769.73;105341;1265;97912;-77
2023/12/02 00:05:52;;;;;;;140.00;60.30;;;;;;;-4.10;94.47;99775.55;105299;1260;98423;-77
2023/12/02 00:08:38;;;;;;;131.30;58.10;;;;;;;-4.10;94.43;99777.17;105233;1274;102609;-77
2023/12/02 00:11:23;;;;;;;141.80;58.20;;;;;;;-4.12;94.46;99777.64;105306;1264;99854;-77
2023/12/02 00:14:09;;;;;;;139.60;57.10;;;;;;;-4.13;94.17;99782.55;105234;1263;98547;-77
2023/12/02 00:16:54;;;;;;;125.20;56.70;;;;;;;-4.14;94.14;99788.20;105277;1260;97937;-76
2023/12/02 00:19:40;;;;;;;136.10;54.20;;;;;;;-4.16;94.17;99782.78;105416;1264;98011;-76
2023/12/02 00:22:25;;;;;;;138.10;57.70;;;;;;;-4.16;94.30;99777.77;105420;1260;102632;-76
2023/12/02 00:25:11;;;;;;;142.80;59.00;;;;;;;-4.17;94.25;99777.44;105374;1260;99086;-76
2023/12/02 00:27:57;;;;;;;134.50;58.60;;;;;;;-4.17;94.18;99777.28;105339;1263;98327;-76
2023/12/02 00:30:42;;;;;;;137.10;58.20;;;;;;;-4.17;94.26;99783.62;105362;1263;97988;-76
2023/12/02 00:33:29;;;;;;;139.50;60.10;;;;;;;-4.18;94.30;99784.16;105353;1263;98504;-77
2023/12/02 00:36:15;;;;;;;139.50;55.90;;;;;;;-4.17;94.42;99785.65;105539;1263;102742;-77
2023/12/02 00:39:00;;;;;;;139.70;58.10;;;;;;;-4.16;94.49;99792.58;105360;1264;100356;-77
2023/12/02 00:41:46;;;;;;;145.50;58.60;;;;;;;-4.18;94.74;99792.00;105400;1263;97964;-77
2023/12/02 00:44:32;;;;;;;135.70;58.50;;;;;;;-4.17;94.98;99793.19;105396;1261;99237;-76
2023/12/02 00:47:17;;;;;;;127.30;54.50;;;;;;;-4.19;94.99;99794.38;105333;1265;99081;-76
2023/12/02 00:50:03;;;;;;;128.00;53.60;;;;;;;-4.22;94.81;99786.75;105270;1264;102629;-76
2023/12/02 00:52:49;;;;;;;124.00;55.40;;;;;;;-4.25;94.89;99779.48;105279;1263;99956;-77
2023/12/02 00:55:34;;;;;;;128.20;55.50;;;;;;;-4.28;94.90;99780.95;105183;1260;98972;-76
2023/12/02 00:58:20;;;;;;;131.20;54.40;;;;;;;-4.34;94.82;99771.95;105110;1260;97874;-77
2023/12/02 01:01:06;;;;;;;132.70;56.60;;;;;;;-4.35;95.17;99767.90;105137;1263;98475;-76
2023/12/02 01:03:51;;;;;;;127.00;53.50;;;;;;;-4.31;95.66;99768.11;104940;1261;102650;-78
2023/12/02 01:06:37;;;;;;;142.10;58.10;;;;;;;-4.27;95.84;99772.52;105480;1263;100460;-77
2023/12/02 01:09:22;;;;;;;135.30;59.10;;;;;;;-4.25;95.82;99769.42;105426;1261;98465;-77
2023/12/02 01:12:08;;;;;;;138.20;57.40;;;;;;;-4.24;95.87;99760.94;105282;1273;98089;-77
2023/12/02 01:14:53;;;;;;;134.80;58.80;;;;;;;-4.29;95.68;99755.38;105416;1263;98365;-77
2023/12/02 01:17:39;;;;;;;147.60;62.20;;;;;;;-4.32;95.84;99754.23;105338;1264;103673;-76
2023/12/02 01:20:25;;;;;;;150.20;60.10;;;;;;;-4.32;96.00;99751.84;105423;1263;100487;-77
2023/12/02 01:23:10;;;;;;;154.40;58.40;;;;;;;-4.32;96.52;99745.72;105323;1264;99196;-77
2023/12/02 01:25:56;;;;;;;148.80;61.40;;;;;;;-4.33;96.84;99738.45;105264;1262;98488;-76
2023/12/02 01:28:41;;;;;;;140.70;59.20;;;;;;;-4.32;97.03;99731.59;105254;1264;98076;-77
2023/12/02 01:31:27;;;;;;;150.60;62.90;;;;;;;-4.31;97.33;99733.23;105259;1263;101942;-78
2023/12/02 01:34:12;;;;;;;148.80;60.00;;;;;;;-4.29;97.45;99732.94;105330;1269;99846;-77
2023/12/02 01:36:58;;;;;;;136.10;58.10;;;;;;;-4.30;97.54;99727.56;105255;1270;99099;-77
2023/12/02 01:39:44;;;;;;;141.60;60.10;;;;;;;-4.31;97.68;99736.52;105337;1263;98566;-76
2023/12/02 01:42:29;;;;;;;147.50;60.60;;;;;;;-4.31;97.81;99742.27;105304;1261;99340;-77
2023/12/02 01:45:15;;;;;;;152.00;60.00;;;;;;;-4.28;97.98;99743.13;105274;1273;103312;-77
2023/12/02 01:48:01;;;;;;;139.90;55.20;;;;;;;-4.25;98.21;99749.48;105398;1274;99118;-77
2023/12/02 01:50:48;;;;;;;160.40;63.70;;;;;;;-4.22;98.40;99760.94;105344;1271;97983;-77
2023/12/02 01:53:33;;;;;;;147.60;62.70;;;;;;;-4.19;98.63;99761.58;105418;1263;97956;-77
2023/12/02 01:56:19;;;;;;;153.40;64.30;;;;;;;-4.14;98.91;99761.94;105290;1263;98004;-75
2023/12/02 01:59:05;;;;;;;156.20;63.50;;;;;;;-4.10;99.19;99765.30;105325;1263;102059;-75
2023/12/02 02:01:50;;;;;;;150.70;62.00;;;;;;;-4.06;99.33;99767.05;105479;1263;100475;-76
2023/12/02 02:04:36;;;;;;;155.70;60.90;;;;;;;-4.02;99.37;99772.36;105377;1266;97872;-77
2023/12/02 02:07:21;;;;;;;160.50;63.10;;;;;;;-3.99;99.63;99773.66;105365;1261;98040;-78
2023/12/02 02:10:07;;;;;;;152.20;59.50;;;;;;;-3.95;99.61;99771.83;105247;1263;98488;-77
2023/12/02 02:12:53;;;;;;;156.50;61.30;;;;;;;-3.93;99.77;99773.73;105326;1273;101365;-77
2023/12/02 02:15:38;;;;;;;153.60;61.70;;;;;;;-3.88;99.83;99771.66;105283;1273;99100;-77
2023/12/02 02:18:24;;;;;;;144.00;55.90;;;;;;;-3.84;99.99;99765.96;105483;1266;99532;-77
2023/12/02 02:21:09;;;;;;;150.20;56.90;;;;;;;-3.82;100.00;99769.81;105202;1260;98046;-76
2023/12/02 02:23:55;;;;;;;154.20;56.30;;;;;;;-3.82;100.00;99778.68;105064;1264;97543;-78
2023/12/02 02:26:40;;;;;;;161.40;60.50;;;;;;;-3.82;100.00;99779.71;105390;1263;101310;-77
2023/12/02 02:29:25;;;;;;;161.20;59.20;;;;;;;-3.79;100.00;99782.98;105383;1264;100456;-77
2023/12/02 02:32:11;;;;;;;146.70;55.60;;;;;;;-3.77;100.00;99785.47;105274;1264;98864;-77
2023/12/02 02:34:58;;;;;;;154.70;60.10;;;;;;;-3.77;100.00;99787.85;105395;1264;97976;-76
2023/12/02 02:37:43;;;;;;;162.00;59.50;;;;;;;-3.74;100.00;99787.66;105354;1264;99807;-77
2023/12/02 02:40:29;;;;;;;209.60;77.80;;;;;;;-3.72;100.00;99787.30;105449;1264;102619;-77
2023/12/02 02:43:14;;;;;;;163.10;63.40;;;;;;;-3.71;100.00;99786.55;105392;1267;99101;-77
2023/12/02 02:46:00;;;;;;;170.30;61.60;;;;;;;-3.71;100.00;99791.10;105359;1264;98525;-76
2023/12/02 02:48:45;;;;;;;159.40;62.60;;;;;;;-3.70;100.00;99786.32;105406;1261;99244;-77
2023/12/02 02:51:31;;;;;;;155.10;57.20;;;;;;;-3.69;100.00;99782.90;105363;1263;97794;-77
2023/12/02 02:54:17;;;;;;;139.20;53.40;;;;;;;-3.68;100.00;99784.92;105325;1264;102269;-77
2023/12/02 02:57:02;;;;;;;146.30;54.80;;;;;;;-3.66;100.00;99783.92;105393;1263;100336;-77
2023/12/02 02:59:48;;;;;;;152.90;55.70;;;;;;;-3.64;100.00;99782.85;105381;1264;98481;-77
2023/12/02 03:02:33;;;;;;;152.50;60.90;;;;;;;-3.60;100.00;99790.23;105315;1263;97982;-77
2023/12/02 03:05:19;;;;;;;162.10;60.20;;;;;;;-3.57;100.00;99786.33;105364;1263;98490;-77
2023/12/02 03:08:05;;;;;;;139.20;55.80;;;;;;;-3.56;100.00;99779.08;105369;1264;102074;-76
2023/12/02 03:10:50;;;;;;;148.70;55.70;;;;;;;-3.54;100.00;99772.27;105167;1263;99199;-77
2023/12/02 03:13:35;;;;;;;145.90;55.10;;;;;;;-3.52;100.00;99772.89;105251;1260;99280;-77
2023/12/02 03:16:21;;;;;;;157.00;56.70;;;;;;;-3.54;100.00;99773.20;105432;1262;97970;-78
2023/12/02 03:19:06;;;;;;;146.90;55.50;;;;;;;-3.58;100.00;99760.18;105315;1263;99139;-77
2023/12/02 03:21:52;;;;;;;145.70;56.40;;;;;;;-3.58;100.00;99752.57;105448;1261;101338;-76
2023/12/02 03:24:38;;;;;;;162.30;56.60;;;;;;;-3.57;100.00;99742.73;105439;1263;100883;-77
2023/12/02 03:27:23;;;;;;;148.80;55.00;;;;;;;-3.55;100.00;99731.02;105318;1263;98044;-77
2023/12/02 03:30:09;;;;;;;156.90;58.30;;;;;;;-3.54;100.00;99719.44;105365;1260;98869;-77
2023/12/02 03:32:55;;;;;;;154.10;57.50;;;;;;;-3.52;100.00;99718.38;105344;1260;97990;-77
2023/12/02 03:35:41;;;;;;;159.90;57.40;;;;;;;-3.50;100.00;99716.48;105408;1264;102691;-78
2023/12/02 03:38:26;;;;;;;163.00;55.50;;;;;;;-3.47;100.00;99714.90;105474;1263;98977;-78
2023/12/02 03:41:12;;;;;;;152.60;58.00;;;;;;;-3.47;100.00;99717.16;105234;1264;98538;-76
2023/12/02 03:43:58;;;;;;;156.20;53.30;;;;;;;-3.49;100.00;99720.78;105400;1264;97960;-78
2023/12/02 03:46:44;;;;;;;162.00;58.10;;;;;;;-3.51;100.00;99720.23;105338;1263;98665;-77
2023/12/02 03:49:30;;;;;;;166.40;56.90;;;;;;;-3.51;100.00;99728.14;105387;1263;102623;-77
2023/12/02 03:52:15;;;;;;;155.50;55.80;;;;;;;-3.51;100.00;99734.94;105324;1263;100541;-77
2023/12/02 03:55:01;;;;;;;165.60;58.10;;;;;;;-3.52;100.00;99742.00;105347;1264;98807;-78
2023/12/02 03:57:47;;;;;;;156.30;58.00;;;;;;;-3.54;100.00;99748.08;107129;1259;98034;-78
2023/12/02 04:00:33;;;;;;;152.30;55.10;;;;;;;-3.54;100.00;99741.46;105467;1263;99756;-77
2023/12/02 04:03:18;;;;;;;156.40;56.70;;;;;;;-3.55;100.00;99744.80;105339;1264;101342;-76
2023/12/02 04:06:05;;;;;;;174.60;61.10;;;;;;;-3.54;100.00;99743.00;105340;1264;99362;-77
2023/12/02 04:08:51;;;;;;;160.50;58.40;;;;;;;-3.53;100.00;99741.00;105410;1260;99237;-77
2023/12/02 04:11:36;;;;;;;157.20;54.40;;;;;;;-3.52;100.00;99742.27;105297;1260;98602;-77
2023/12/02 04:14:21;;;;;;;159.60;57.90;;;;;;;-3.48;100.00;99741.67;105391;1260;97879;-78
2023/12/02 04:17:08;;;;;;;161.30;60.80;;;;;;;-3.47;100.00;99736.68;105416;1260;101492;-77
2023/12/02 04:19:53;;;;;;;149.20;55.40;;;;;;;-3.46;100.00;99737.98;105385;1261;99137;-78
2023/12/02 04:22:39;;;;;;;158.90;58.40;;;;;;;-3.43;100.00;99741.08;105314;1264;98027;-77
2023/12/02 04:25:24;;;;;;;158.20;58.10;;;;;;;-3.39;100.00;99743.72;105327;1261;99208;-77
2023/12/02 04:28:10;;;;;;;164.10;58.30;;;;;;;-3.37;100.00;99751.08;105386;1263;97891;-77
2023/12/02 04:30:57;;;;;;;150.80;54.40;;;;;;;-3.36;100.00;99748.38;105387;1260;101377;-78
2023/12/02 04:33:42;;;;;;;149.80;58.30;;;;;;;-3.35;100.00;99753.19;105357;1259;99256;-76
2023/12/02 04:36:28;;;;;;;158.20;56.40;;;;;;;-3.36;100.00;99751.86;105436;1263;98474;-77
2023/12/02 04:39:14;;;;;;;149.50;55.60;;;;;;;-3.37;100.00;99754.20;105332;1259;97986;-77
2023/12/02 04:42:00;;;;;;;154.90;55.00;;;;;;;-3.36;100.00;99755.90;105378;1264;97984;-77
2023/12/02 04:44:45;;;;;;;144.40;54.40;;;;;;;-3.37;100.00;99756.13;105397;1261;101993;-77
2023/12/02 04:47:31;;;;;;;146.10;54.30;;;;;;;-3.36;100.00;99759.34;105358;1263;99153;-77
2023/12/02 04:50:17;;;;;;;162.00;59.30;;;;;;;-3.34;100.00;99754.84;105296;1263;98381;-77
2023/12/02 04:53:02;;;;;;;150.40;57.20;;;;;;;-3.31;100.00;99745.21;105299;1273;97906;-77
2023/12/02 04:55:48;;;;;;;142.50;53.50;;;;;;;-3.33;100.00;99741.12;105418;1261;97866;-77
2023/12/02 04:58:33;;;;;;;151.70;57.90;;;;;;;-3.34;100.00;99741.90;105384;1260;102613;-76
2023/12/02 05:01:19;;;;;;;141.70;53.80;;;;;;;-3.35;100.00;99733.83;105318;1264;99080;-77
2023/12/02 05:04:05;;;;;;;153.20;56.50;;;;;;;-3.37;100.00;99730.27;105439;1274;97918;-76
2023/12/02 05:06:52;;;;;;;146.40;56.00;;;;;;;-3.36;100.00;99730.60;105387;1260;97789;-75
2023/12/02 05:09:37;;;;;;;154.70;54.50;;;;;;;-3.38;100.00;99725.98;105404;1263;98520;-77
2023/12/02 05:12:23;;;;;;;146.80;55.80;;;;;;;-3.39;100.00;99727.63;105464;1261;103265;-77
2023/12/02 05:15:09;;;;;;;153.30;54.90;;;;;;;-3.39;100.00;99724.36;105498;1260;99181;-77
2023/12/02 05:17:54;;;;;;;153.70;59.80;;;;;;;-3.41;100.00;99726.99;105449;1263;97972;-77
2023/12/02 05:20:40;;;;;;;143.10;53.70;;;;;;;-3.40;100.00;99739.49;105528;1263;97899;-76
2023/12/02 05:23:25;;;;;;;164.40;57.20;;;;;;;-3.39;100.00;99736.94;105405;1261;98079;-77
2023/12/02 05:26:11;;;;;;;159.60;58.20;;;;;;;-3.40;100.00;99729.45;105410;1264;101348;-77
2023/12/02 05:29:00;;;;;;;156.30;60.40;;;;;;;-3.38;100.00;99731.23;105222;1261;99267;-75
2023/12/02 05:31:46;;;;;;;159.20;56.00;;;;;;;-3.36;100.00;99728.64;105434;1264;98016;-77
2023/12/02 05:34:35;;;;;;;158.30;61.90;;;;;;;-3.35;100.00;99731.84;105319;1264;99072;-76
2023/12/02 05:37:21;;;;;;;155.40;53.00;;;;;;;-3.34;100.00;99733.93;105486;1262;97976;-77
2023/12/02 05:40:09;;;;;;;155.50;53.50;;;;;;;-3.36;100.00;99731.80;105478;1260;101393;-76
2023/12/02 05:42:54;;;;;;;146.60;55.50;;;;;;;-3.37;100.00;99733.61;105186;1259;99660;-76
2023/12/02 05:45:41;;;;;;;140.60;52.30;;;;;;;-3.39;100.00;99729.43;105382;1261;97944;-77
2023/12/02 05:48:26;;;;;;;148.20;50.10;;;;;;;-3.39;100.00;99728.91;105270;1260;97967;-77
2023/12/02 05:51:13;;;;;;;137.00;52.90;;;;;;;-3.38;100.00;99728.33;105490;1260;98486;-77
2023/12/02 05:53:58;;;;;;;148.30;51.10;;;;;;;-3.35;100.00;99731.22;105354;1261;101384;-77
2023/12/02 05:56:44;;;;;;;140.30;53.00;;;;;;;-3.32;100.00;99735.86;105425;1271;99361;-76
2023/12/02 05:59:29;;;;;;;139.90;53.30;;;;;;;-3.30;100.00;99733.79;105389;1263;97989;-77
2023/12/02 06:02:15;;;;;;;137.00;48.70;;;;;;;-3.30;100.00;99736.52;105096;1265;98049;-76
2023/12/02 06:05:01;;;;;;;134.30;49.20;;;;;;;-3.31;100.00;99737.88;105039;1264;97847;-76
2023/12/02 06:07:46;;;;;;;121.50;47.00;;;;;;;-3.35;100.00;99732.21;105209;1260;101320;-76
2023/12/02 06:10:32;;;;;;;133.20;47.80;;;;;;;-3.40;100.00;99726.15;105356;1259;99192;-77
2023/12/02 06:13:18;;;;;;;132.00;48.90;;;;;;;-3.40;100.00;99724.64;105323;1264;99183;-76
2023/12/02 06:16:04;;;;;;;127.60;46.30;;;;;;;-3.40;100.00;99723.03;105416;1260;98066;-77
2023/12/02 06:18:49;;;;;;;137.10;46.20;;;;;;;-3.38;100.00;99722.34;105328;1263;98514;-78
2023/12/02 06:21:35;;;;;;;108.10;41.80;;;;;;;-3.37;100.00;99720.15;105396;1259;103237;-77
2023/12/02 06:24:21;;;;;;;107.90;38.50;;;;;;;-3.39;100.00;99712.12;105345;1264;100364;-78
2023/12/02 06:27:06;;;;;;;107.50;39.50;;;;;;;-3.42;100.00;99707.17;105468;1263;98411;-78
2023/12/02 06:29:52;;;;;;;112.10;39.50;;;;;;;-3.43;100.00;99701.82;105412;1264;97880;-78
2023/12/02 06:32:38;;;;;;;96.00;36.80;;;;;;;-3.43;100.00;99697.10;105409;1264;98418;-76
2023/12/02 06:35:23;;;;;;;103.50;39.10;;;;;;;-3.42;100.00;99705.55;105377;1260;101432;-77
2023/12/02 06:38:09;;;;;;;96.70;35.80;;;;;;;-3.40;100.00;99714.32;105358;1259;99552;-79
2023/12/02 06:40:55;;;;;;;110.70;38.80;;;;;;;-3.37;100.00;99725.25;105454;1264;99248;-76
2023/12/02 06:43:40;;;;;;;101.00;37.70;;;;;;;-3.36;100.00;99727.56;105370;1264;98044;-76
2023/12/02 06:46:26;;;;;;;111.00;41.70;;;;;;;-3.36;100.00;99728.29;105411;1261;97979;-76
2023/12/02 06:49:12;;;;;;;106.20;37.30;;;;;;;-3.37;100.00;99737.82;105367;1260;102692;-77
2023/12/02 06:51:57;;;;;;;101.30;38.70;;;;;;;-3.40;100.00;99752.50;105437;1259;100313;-76
2023/12/02 06:54:43;;;;;;;109.40;40.40;;;;;;;-3.41;100.00;99757.88;105197;1263;98998;-77
2023/12/02 06:57:28;;;;;;;98.00;35.40;;;;;;;-3.44;100.00;99760.00;105289;1264;99187;-78
2023/12/02 07:00:14;;;;;;;100.40;37.60;;;;;;;-3.46;100.00;99765.88;105384;1259;98851;-78
2023/12/02 07:03:00;;;;;;;108.90;37.10;;;;;;;-3.47;100.00;99771.59;105310;1264;101354;-78
2023/12/02 07:05:45;;;;;;;88.10;32.90;;;;;;;-3.48;100.00;99772.38;105326;1264;99095;-78
2023/12/02 07:08:31;;;;;;;113.30;39.50;;;;;;;-3.52;100.00;99778.05;105338;1260;97960;-77
2023/12/02 07:11:17;;;;;;;106.50;37.20;;;;;;;-3.55;100.00;99784.08;105388;1264;97956;-78
2023/12/02 07:14:03;;;;;;;90.10;33.60;;;;;;;-3.55;100.00;99783.88;105453;1259;97913;-77
2023/12/02 07:16:48;;;;;;;115.60;37.70;;;;;;;-3.56;100.00;99784.30;105443;1264;102645;-76
2023/12/02 07:19:34;;;;;;;112.50;38.50;;;;;;;-3.56;100.00;99781.02;105357;1259;99112;-76
2023/12/02 07:22:19;;;;;;;119.00;38.30;;;;;;;-3.56;100.00;99774.39;105463;1260;98005;-76
2023/12/02 07:25:05;;;;;;;109.70;36.50;;;;;;;-3.55;100.00;99775.67;105473;1263;97989;-78
2023/12/02 07:27:51;;;;;;;108.60;38.90;;;;;;;-3.52;100.00;99776.52;105402;1259;97999;-76
2023/12/02 07:30:36;;;;;;;122.40;40.80;;;;;;;-3.50;100.00;99775.27;105356;1263;102150;-77
2023/12/02 07:33:23;;;;;;;118.70;37.10;;;;;;;-3.45;100.00;99778.61;105344;1264;100281;-77
2023/12/02 07:36:09;;;;;;;124.90;39.90;;;;;;;-3.45;100.00;99777.86;105931;1263;98333;-78
2023/12/02 07:38:55;;;;;;;103.90;41.40;;;;;;;-3.45;100.00;99768.64;105276;1260;99240;-77
2023/12/02 07:41:42;;;;;;;109.00;37.70;;;;;;;-3.44;100.00;99765.45;105414;1260;98413;-77
2023/12/02 07:44:27;;;;;;;111.50;35.30;;;;;;;-3.42;100.00;99760.77;105400;1261;101359;-78
2023/12/02 07:47:13;;;;;;;111.20;38.30;;;;;;;-3.35;100.00;99749.38;105444;1264;99135;-77
2023/12/02 07:49:59;;;;;;;118.30;38.40;;;;;;;-3.33;100.00;99747.24;105314;1260;142172;-77
2023/12/02 07:52:44;;;;;;;109.20;35.90;;;;;;;-3.35;100.00;99742.39;105327;1264;98080;-77
2023/12/02 07:55:30;;;;;;;113.90;37.60;;;;;;;-3.36;100.00;99747.20;105485;1259;98419;-76
2023/12/02 07:58:16;;;;;;;118.20;39.90;;;;;;;-3.35;100.00;99739.58;105393;1260;102116;-77
2023/12/02 08:01:01;;;;;;;117.30;37.60;;;;;;;-3.34;100.00;99737.70;105445;1259;99682;-76
2023/12/02 08:03:47;;;;;;;109.10;37.20;;;;;;;-3.30;100.00;99739.89;105368;1258;98078;-77
2023/12/02 08:06:33;;;;;;;116.70;38.00;;;;;;;-3.29;100.00;99740.12;105339;1264;97974;-78
2023/12/02 08:09:18;;;;;;;110.40;36.40;;;;;;;-3.25;100.00;99741.00;105362;1263;97882;-77
2023/12/02 08:12:05;;;;;;;110.60;34.90;;;;;;;-3.19;100.00;99740.20;105238;1263;101352;-80
2023/12/02 08:14:50;;;;;;;124.40;40.30;;;;;;;-3.17;100.00;99729.19;106492;1259;99339;-82
2023/12/02 08:17:36;;;;;;;123.40;38.00;;;;;;;-3.14;100.00;99730.58;106463;1262;99595;-82
2023/12/02 08:20:21;;;;;;;122.90;37.30;;;;;;;-3.11;100.00;99745.34;106396;1259;97955;-82
2023/12/02 08:23:07;;;;;;;119.50;38.70;;;;;;;-3.07;100.00;99762.48;106514;1263;98571;-82
2023/12/02 08:25:52;;;;;;;114.90;41.60;;;;;;;-3.00;100.00;99774.66;106561;1258;101346;-80
2023/12/02 08:28:38;;;;;;;135.80;42.50;;;;;;;-2.94;100.00;99776.63;106386;1259;99088;-82
2023/12/02 08:31:24;;;;;;;141.90;52.80;;;;;;;-2.89;100.00;99776.77;106150;1259;99195;-81
2023/12/02 08:34:09;;;;;;;132.80;50.40;;;;;;;-2.83;100.00;99778.02;106103;1259;98059;-81
2023/12/02 08:36:55;;;;;;;128.40;49.10;;;;;;;-2.77;100.00;99785.38;106173;1259;97208;-80
2023/12/02 08:39:41;;;;;;;131.20;49.80;;;;;;;-2.73;100.00;99787.86;105969;1259;101457;-77
2023/12/02 08:42:26;;;;;;;127.80;47.00;;;;;;;-2.68;100.00;99786.06;105338;1262;98932;-77
2023/12/02 08:45:12;;;;;;;125.20;47.90;;;;;;;-2.63;100.00;99783.90;105359;1264;97902;-77
2023/12/02 08:47:58;;;;;;;123.30;43.00;;;;;;;-2.59;100.00;99790.01;105116;1264;97974;-77
2023/12/02 08:50:44;;;;;;;122.10;43.70;;;;;;;-2.55;100.00;99795.23;105119;1259;98521;-76
2023/12/02 08:53:29;;;;;;;128.70;43.90;;;;;;;-2.51;100.00;99806.33;105080;1260;101391;-77
2023/12/02 08:56:15;;;;;;;115.10;37.30;;;;;;;-2.48;100.00;99809.43;105182;1258;100373;-77
2023/12/02 08:59:00;;;;;;;113.40;38.70;;;;;;;-2.47;100.00;99805.13;105101;1260;97967;-76
2023/12/02 09:01:46;;;;;;;118.80;36.10;;;;;;;-2.44;100.00;99799.27;105122;1263;98030;-76
2023/12/02 09:04:32;;;;;;;112.90;39.60;;;;;;;-2.42;100.00;99801.88;105211;1261;99287;-76
2023/12/02 09:07:18;;;;;;;109.00;38.40;;;;;;;-2.41;100.00;99803.19;105406;1263;102247;-77
2023/12/02 09:10:04;;;;;;;110.80;38.90;;;;;;;-2.39;100.00;99807.11;105305;1262;100325;-82
2023/12/02 09:12:50;;;;;;;105.10;33.30;;;;;;;-2.39;100.00;99809.38;106518;1259;99448;-81
2023/12/02 09:15:40;;;;;;;112.50;38.00;;;;;;;-2.39;100.00;99810.43;106334;1260;98045;-80
2023/12/02 09:18:33;;;;;;;109.10;36.40;;;;;;;-2.39;100.00;99805.30;107220;1260;95871;-79
2023/12/02 09:21:37;;;;;;;109.80;35.60;;;;;;;-2.38;100.00;99802.63;106447;1260;102551;-78
2023/12/02 09:24:38;;;;;;;111.60;37.80;;;;;;;-2.38;100.00;99799.89;106313;1258;100360;-79
2023/12/02 09:28:04;;;;;;;108.40;35.20;;;;;;;-2.40;100.00;99788.66;105697;1263;98460;-79
2023/12/02 09:31:11;;;;;;;107.90;35.40;;;;;;;-2.41;100.00;99782.64;105537;1261;97967;-79
2023/12/02 09:34:04;;;;;;;115.00;37.40;;;;;;;-2.39;100.00;99783.30;105533;1261;98444;-78
2023/12/02 09:36:50;;;;;;;108.20;37.20;;;;;;;-2.40;100.00;99778.30;105225;1263;103108;-78
2023/12/02 09:40:24;;;;;;;98.80;35.50;;;;;;;-2.39;100.00;99771.27;105754;1258;99578;-79
2023/12/02 09:43:27;;;;;;;97.10;31.80;;;;;;;-2.41;100.00;99768.09;105806;1263;98003;-78
2023/12/02 09:46:31;;;;;;;91.70;29.30;;;;;;;-2.27;100.00;99771.16;105677;1262;98058;-79
2023/12/02 09:49:42;;;;;;;95.70;31.90;;;;;;;-2.05;100.00;99777.68;105594;1260;98559;-79
2023/12/02 09:52:33;;;;;;;101.40;34.20;;;;;;;-2.00;100.00;99780.63;105478;1262;101485;-79
2023/12/02 09:55:41;;;;;;;90.00;31.60;;;;;;;-2.02;100.00;99775.69;105952;1259;99834;-79
2023/12/02 09:58:37;;;;;;;93.10;30.60;;;;;;;-2.00;100.00;99777.08;105880;1259;97939;-79
2023/12/02 10:01:37;;;;;;;91.00;31.60;;;;;;;-1.97;100.00;99775.42;106990;1259;98944;-79
2023/12/02 10:05:04;;;;;;;92.70;31.70;;;;;;;-1.98;100.00;99773.95;106090;1258;97937;-79
2023/12/02 10:08:08;;;;;;;84.30;31.10;;;;;;;-2.01;100.00;99774.23;106036;1263;101374;-81
2023/12/02 10:11:00;;;;;;;97.10;31.20;;;;;;;-2.01;100.00;99780.14;106201;1262;99146;-80
2023/12/02 10:14:16;;;;;;;87.40;31.30;;;;;;;-1.98;100.00;99792.53;105513;1263;99688;-77
2023/12/02 10:17:02;;;;;;;85.50;29.30;;;;;;;-1.97;100.00;99796.42;106033;1264;98857;-81
2023/12/02 10:19:54;;;;;;;79.10;27.90;;;;;;;-1.98;100.00;99779.34;106755;1258;98428;-81
2023/12/02 10:22:49;;;;;;;83.90;30.10;;;;;;;-1.97;100.00;99758.66;106800;1259;101415;-78
2023/12/02 10:26:07;;;;;;;80.70;28.10;;;;;;;-1.97;100.00;99743.11;106924;1263;100369;-82
2023/12/02 10:29:13;;;;;;;79.50;28.60;;;;;;;-1.97;100.00;99735.60;106107;1259;98316;-82
2023/12/02 10:32:28;;;;;;;72.80;26.40;;;;;;;-1.98;100.00;99740.39;106247;1259;98024;-82
2023/12/02 10:35:20;;;;;;;82.30;28.80;;;;;;;-1.97;100.00;99741.84;106314;1259;97993;-83
2023/12/02 10:38:31;;;;;;;69.60;27.00;;;;;;;-1.94;100.00;99756.84;106261;1259;101463;-80
2023/12/02 10:41:27;;;;;;;68.60;24.10;;;;;;;-1.92;100.00;99769.46;106349;1259;99100;-83
2023/12/02 10:44:16;;;;;;;74.50;25.10;;;;;;;-1.92;100.00;99769.60;106352;1262;97983;-80
2023/12/02 10:47:04;;;;;;;72.50;26.30;;;;;;;-1.91;100.00;99759.04;106384;1264;97958;-79
2023/12/02 10:49:50;;;;;;;70.20;25.60;;;;;;;-1.88;100.00;99749.66;105839;1261;97897;-83
2023/12/02 10:52:37;;;;;;;61.10;24.20;;;;;;;-1.88;100.00;99744.73;105829;1260;101473;-83
2023/12/02 10:55:26;;;;;;;73.70;24.80;;;;;;;-1.87;100.00;99739.28;106145;1260;99908;-85
2023/12/02 10:58:14;;;;;;;75.30;29.70;;;;;;;-1.88;100.00;99736.31;106105;1259;98548;-82
2023/12/02 11:01:06;;;;;;;66.70;25.70;;;;;;;-1.89;100.00;99739.92;107571;1261;98028;-84
2023/12/02 11:04:27;;;;;;;70.50;24.50;;;;;;;-1.89;100.00;99754.27;106148;1262;97976;-85
2023/12/02 11:07:16;;;;;;;66.90;23.10;;;;;;;-1.85;100.00;99773.00;106057;1259;101469;-84
2023/12/02 11:10:09;;;;;;;59.50;23.00;;;;;;;-1.81;100.00;99784.10;106235;1259;100439;-82
2023/12/02 11:12:58;;;;;;;54.80;20.80;;;;;;;-1.80;100.00;99784.85;106216;1265;97959;-84
2023/12/02 11:16:28;;;;;;;62.20;23.40;;;;;;;-1.80;100.00;99784.30;105990;1259;97951;-83
2023/12/02 11:19:57;;;;;;;60.60;23.00;;;;;;;-1.78;100.00;99783.13;106115;1263;98396;-76
2023/12/02 11:22:57;;;;;;;53.80;20.60;;;;;;;-1.77;100.00;99775.29;105357;1259;101363;-80
2023/12/02 11:26:04;;;;;;;67.60;26.40;;;;;;;-1.76;100.00;99760.70;106054;1259;100401;-91
2023/12/02 11:29:01;;;;;;;66.00;24.30;;;;;;;-1.76;100.00;99752.08;106440;1259;99806;-82
2023/12/02 11:32:18;;;;;;;64.10;24.70;;;;;;;-1.72;100.00;99743.95;106173;1259;97954;-88
2023/12/02 11:35:12;;;;;;;72.60;26.90;;;;;;;-1.71;100.00;99729.11;106517;1264;97983;-87
2023/12/02 11:38:11;;;;;;;65.30;25.70;;;;;;;-1.72;100.00;99731.48;106397;1259;101952;-80
2023/12/02 11:41:26;;;;;;;69.40;26.60;;;;;;;-1.71;100.00;99733.19;105916;1259;99145;-77
2023/12/02 11:44:39;;;;;;;73.10;24.80;;;;;;;-1.72;100.00;99730.77;105331;1263;98003;-82
2023/12/02 11:47:59;;;;;;;71.60;26.20;;;;;;;-1.71;100.00;99719.01;105945;1259;97877;-82
2023/12/02 11:51:02;;;;;;;65.40;25.80;;;;;;;-1.74;100.00;99726.36;106088;1259;97984;-77
2023/12/02 11:54:12;;;;;;;69.90;25.40;;;;;;;-1.74;100.00;99731.34;105730;1263;101369;-82
2023/12/02 11:57:19;;;;;;;69.00;24.70;;;;;;;-1.76;100.00;99711.40;105481;1259;100719;-81
2023/12/02 12:00:09;;;;;;;72.90;26.00;;;;;;;-1.78;100.00;99711.70;106015;1259;99040;-83
2023/12/02 12:03:18;;;;;;;63.70;24.10;;;;;;;-1.79;100.00;99735.09;105957;1259;98118;-82
2023/12/02 12:06:30;;;;;;;61.50;25.60;;;;;;;-1.79;100.00;99741.88;105878;1262;98496;-81
2023/12/02 12:09:26;;;;;;;67.00;24.70;;;;;;;-1.78;100.00;99734.24;106011;1262;102199;-82
2023/12/02 12:12:14;;;;;;;60.10;22.30;;;;;;;-1.74;100.00;99727.48;105912;1259;99121;-81
2023/12/02 12:15:02;;;;;;;57.40;22.40;;;;;;;-1.74;100.00;99725.00;105936;1259;97947;-82
2023/12/02 12:17:48;;;;;;;60.20;21.00;;;;;;;-1.76;100.00;99719.23;106032;1259;97973;-82
2023/12/02 12:20:35;;;;;;;55.20;22.80;;;;;;;-1.78;100.00;99731.45;105959;1259;97955;-83
2023/12/02 12:23:24;;;;;;;54.60;20.30;;;;;;;-1.79;100.00;99733.98;105775;1259;101456;-83
2023/12/02 12:26:10;;;;;;;49.90;19.60;;;;;;;-1.78;100.00;99732.36;105968;1259;100247;-82
2023/12/02 12:28:56;;;;;;;43.70;19.00;;;;;;;-1.78;100.00;99738.64;106230;1259;99094;-83
2023/12/02 12:31:42;;;;;;;45.10;18.50;;;;;;;-1.76;100.00;99745.86;106224;1259;95937;-82